createdAt,value
2018-12-14T00:01:45.704Z,8.30
2018-12-14T00:04:13.391Z,7.83
2018-12-14T00:06:41.016Z,8.60
2018-12-14T00:09:08.535Z,7.20
2018-12-14T00:11:36.034Z,8.15
2018-12-14T00:14:03.596Z,7.67
2018-12-14T00:16:31.097Z,7.87
2018-12-14T00:18:58.580Z,6.45
2018-12-14T00:21:26.177Z,7.42
2018-12-14T00:23:53.675Z,7.67
2018-12-14T00:26:21.194Z,7.58
2018-12-14T00:28:48.674Z,8.55
2018-12-14T00:31:16.202Z,7.72
2018-12-14T00:33:43.772Z,7.67
2018-12-14T00:36:11.301Z,7.92
2018-12-14T00:38:39.060Z,8.10
2018-12-14T00:41:06.592Z,8.60
2018-12-14T00:43:34.113Z,7.45
2018-12-14T00:46:01.624Z,8.90
2018-12-14T00:48:29.133Z,7.42
2018-12-14T00:50:56.621Z,8.68
2018-12-14T00:53:24.151Z,6.92
2018-12-14T00:55:51.646Z,7.00
2018-12-14T00:58:19.191Z,7.83
2018-12-14T01:00:46.661Z,7.67
2018-12-14T01:03:14.194Z,7.85
2018-12-14T01:05:41.783Z,6.95
2018-12-14T01:08:09.352Z,8.13
2018-12-14T01:10:36.899Z,6.85
2018-12-14T01:13:04.581Z,7.50
2018-12-14T01:15:32.111Z,8.70
2018-12-14T01:17:59.824Z,7.20
2018-12-14T01:20:27.407Z,7.55
2018-12-14T01:22:54.940Z,8.03
2018-12-14T01:25:22.443Z,7.25
2018-12-14T01:27:49.962Z,8.53
2018-12-14T01:30:17.435Z,8.05
2018-12-14T01:32:44.960Z,7.65
2018-12-14T01:35:12.644Z,7.72
2018-12-14T01:37:40.132Z,6.83
2018-12-14T01:40:07.691Z,7.70
2018-12-14T01:42:35.320Z,8.15
2018-12-14T01:45:03.637Z,8.15
2018-12-14T01:47:31.180Z,7.00
2018-12-14T01:49:58.677Z,9.03
2018-12-14T01:52:27.219Z,7.45
2018-12-14T01:54:54.984Z,8.08
2018-12-14T01:57:22.684Z,8.10
2018-12-14T01:59:50.178Z,7.67
2018-12-14T02:02:17.734Z,7.40
2018-12-14T02:04:45.262Z,8.45
2018-12-14T02:07:12.763Z,7.40
2018-12-14T02:09:40.324Z,7.80
2018-12-14T02:12:11.222Z,7.90
2018-12-14T02:14:37.338Z,6.97
2018-12-14T02:17:04.881Z,7.80
2018-12-14T02:19:32.453Z,8.45
2018-12-14T02:21:59.967Z,7.78
2018-12-14T02:24:27.468Z,8.43
2018-12-14T02:26:54.975Z,7.15
2018-12-14T02:29:22.455Z,8.13
2018-12-14T02:31:49.918Z,7.17
2018-12-14T02:34:17.481Z,7.72
2018-12-14T02:36:44.957Z,8.10
2018-12-14T02:39:12.493Z,7.45
2018-12-14T02:41:40.077Z,7.87
2018-12-14T02:44:07.577Z,7.97
2018-12-14T02:46:35.084Z,7.50
2018-12-14T02:49:02.616Z,7.62
2018-12-14T02:51:30.140Z,6.70
2018-12-14T02:53:57.631Z,6.80
2018-12-14T02:56:25.106Z,7.03
2018-12-14T02:58:52.635Z,7.10
2018-12-14T03:01:20.133Z,7.78
2018-12-14T03:03:47.644Z,6.75
2018-12-14T03:06:15.146Z,7.87
2018-12-14T03:08:42.661Z,6.50
2018-12-14T03:11:10.189Z,6.80
2018-12-14T03:13:37.658Z,6.47
2018-12-14T03:16:05.171Z,6.58
2018-12-14T03:18:32.678Z,7.28
2018-12-14T03:21:00.191Z,6.85
2018-12-14T03:23:27.710Z,6.90
2018-12-14T03:25:55.499Z,6.50
2018-12-14T03:28:23.028Z,7.55
2018-12-14T03:30:50.553Z,5.70
2018-12-14T03:33:18.016Z,6.12
2018-12-14T03:35:45.557Z,6.12
2018-12-14T03:38:13.075Z,7.15
2018-12-14T03:40:40.570Z,6.10
2018-12-14T03:43:08.105Z,5.80
2018-12-14T03:45:35.588Z,6.17
2018-12-14T03:48:03.109Z,6.55
2018-12-14T03:50:30.590Z,6.10
2018-12-14T03:52:58.089Z,6.10
2018-12-14T03:55:25.950Z,6.25
2018-12-14T03:57:54.192Z,6.10
2018-12-14T04:00:21.986Z,5.85
2018-12-14T04:02:49.744Z,6.03
2018-12-14T04:05:17.545Z,6.37
2018-12-14T04:07:45.022Z,6.00
2018-12-14T04:10:12.559Z,5.72
2018-12-14T04:12:41.831Z,6.22
2018-12-14T04:15:09.606Z,6.20
2018-12-14T04:17:37.107Z,5.28
2018-12-14T04:20:05.168Z,5.92
2018-12-14T04:22:32.817Z,6.55
2018-12-14T04:25:00.304Z,6.53
2018-12-14T04:27:27.825Z,6.25
2018-12-14T04:29:55.387Z,6.65
2018-12-14T04:32:22.856Z,7.30
2018-12-14T04:34:50.395Z,7.00
2018-12-14T04:37:17.891Z,6.20
2018-12-14T04:39:45.368Z,6.78
2018-12-14T04:42:12.888Z,7.05
2018-12-14T04:44:40.840Z,7.05
2018-12-14T04:47:08.727Z,6.87
2018-12-14T04:49:36.512Z,7.25
2018-12-14T04:52:06.026Z,6.12
2018-12-14T04:54:33.503Z,6.15
2018-12-14T04:57:01.164Z,6.40
2018-12-14T04:59:28.642Z,7.40
2018-12-14T05:01:56.152Z,7.17
2018-12-14T05:04:23.724Z,8.03
2018-12-14T05:06:51.254Z,7.53
2018-12-14T05:09:18.820Z,7.53
2018-12-14T05:11:46.305Z,7.62
2018-12-14T05:14:13.841Z,7.05
2018-12-14T05:16:41.343Z,6.92
2018-12-14T05:19:08.842Z,8.00
2018-12-14T05:21:36.394Z,7.05
2018-12-14T05:24:03.905Z,7.50
2018-12-14T05:26:31.427Z,7.10
2018-12-14T05:28:58.907Z,7.80
2018-12-14T05:31:26.456Z,6.92
2018-12-14T05:33:53.995Z,8.28
2018-12-14T05:36:21.522Z,8.33
2018-12-14T05:38:49.071Z,7.10
2018-12-14T05:41:16.695Z,6.85
2018-12-14T05:43:44.216Z,7.78
2018-12-14T05:46:11.759Z,7.65
2018-12-14T05:48:39.283Z,6.42
2018-12-14T05:51:06.814Z,7.53
2018-12-14T05:53:34.385Z,7.60
2018-12-14T05:56:01.980Z,7.92
2018-12-14T05:58:29.470Z,6.72
2018-12-14T06:00:57.013Z,8.30
2018-12-14T06:03:24.537Z,7.00
2018-12-14T06:05:52.043Z,7.80
2018-12-14T06:08:19.515Z,8.03
2018-12-14T06:10:47.054Z,8.33
2018-12-14T06:13:14.511Z,8.45
2018-12-14T06:15:42.074Z,8.65
2018-12-14T06:18:09.578Z,8.00
2018-12-14T06:20:37.056Z,7.42
2018-12-14T06:23:04.598Z,7.35
2018-12-14T06:25:32.074Z,8.00
2018-12-14T06:27:59.554Z,7.42
2018-12-14T06:30:27.161Z,7.62
2018-12-14T06:32:54.671Z,7.62
2018-12-14T06:35:22.158Z,7.08
2018-12-14T06:37:49.667Z,7.15
2018-12-14T06:40:17.201Z,7.17
2018-12-14T06:42:44.731Z,7.60
2018-12-14T06:45:12.306Z,8.30
2018-12-14T06:47:39.885Z,7.10
2018-12-14T06:50:07.453Z,7.70
2018-12-14T06:52:35.076Z,7.65
2018-12-14T06:55:02.582Z,7.67
2018-12-14T06:57:30.122Z,8.20
2018-12-14T06:59:57.647Z,8.35
2018-12-14T07:02:25.222Z,8.35
2018-12-14T07:04:52.811Z,7.67
2018-12-14T07:07:20.333Z,8.28
2018-12-14T07:09:47.856Z,8.03
2018-12-14T07:12:15.384Z,7.60
2018-12-14T07:14:42.882Z,7.80
2018-12-14T07:17:10.387Z,7.45
2018-12-14T07:19:37.887Z,7.95
2018-12-14T07:22:05.928Z,8.70
2018-12-14T07:24:33.492Z,9.38
2018-12-14T07:27:01.060Z,8.28
2018-12-14T07:29:28.648Z,8.58
2018-12-14T07:31:56.154Z,8.60
2018-12-14T07:34:23.708Z,8.50
2018-12-14T07:36:51.180Z,7.28
2018-12-14T07:39:18.720Z,8.70
2018-12-14T07:41:46.255Z,6.92
2018-12-14T07:44:13.769Z,7.85
2018-12-14T07:46:41.315Z,7.92
2018-12-14T07:49:08.842Z,8.78
2018-12-14T07:51:36.458Z,9.50
2018-12-14T07:54:04.014Z,6.87
2018-12-14T07:56:31.538Z,10.23
2018-12-14T07:58:59.245Z,10.03
2018-12-14T08:01:26.862Z,9.18
2018-12-14T08:03:54.344Z,9.08
2018-12-14T08:06:21.844Z,7.92
2018-12-14T08:08:49.365Z,8.18
2018-12-14T08:11:16.878Z,7.45
2018-12-14T08:13:44.398Z,8.55
2018-12-14T08:16:11.922Z,8.15
2018-12-14T08:18:39.467Z,8.20
2018-12-14T08:21:06.965Z,8.10
2018-12-14T08:23:34.464Z,8.68
2018-12-14T08:26:02.019Z,8.45
2018-12-14T08:28:29.510Z,8.90
2018-12-14T08:30:57.060Z,8.28
2018-12-14T08:33:24.619Z,12.18
2018-12-14T08:35:52.141Z,10.38
2018-12-14T08:38:19.687Z,9.68
2018-12-14T08:40:47.191Z,9.53
2018-12-14T08:43:14.659Z,8.73
2018-12-14T08:45:42.227Z,8.45
2018-12-14T08:48:09.717Z,9.75
2018-12-14T08:50:37.492Z,8.63
2018-12-14T08:53:05.087Z,12.93
2018-12-14T08:55:32.619Z,10.32
2018-12-14T08:58:00.104Z,8.88
2018-12-14T09:00:27.630Z,9.13
2018-12-14T09:02:55.121Z,8.48
2018-12-14T09:05:22.677Z,8.75
2018-12-14T09:07:50.166Z,8.75
2018-12-14T09:10:19.358Z,8.63
2018-12-14T09:12:47.084Z,8.60
2018-12-14T09:15:14.574Z,9.40
2018-12-14T09:17:42.146Z,7.95
2018-12-14T09:20:09.798Z,8.58
2018-12-14T09:22:37.825Z,8.95
2018-12-14T09:25:05.307Z,8.43
2018-12-14T09:27:33.607Z,9.03
2018-12-14T09:30:01.144Z,8.08
2018-12-14T09:32:28.628Z,8.20
2018-12-14T09:34:56.160Z,9.13
2018-12-14T09:37:23.682Z,12.13
2018-12-14T09:39:51.187Z,11.05
2018-12-14T09:42:18.722Z,8.93
2018-12-14T09:44:46.246Z,9.95
2018-12-14T09:47:13.782Z,8.48
2018-12-14T09:49:41.326Z,9.50
2018-12-14T09:52:09.614Z,8.60
2018-12-14T09:54:37.130Z,9.20
2018-12-14T09:57:04.629Z,10.35
2018-12-14T09:59:32.158Z,8.90
2018-12-14T10:01:59.678Z,9.68
2018-12-14T10:04:27.191Z,10.38
2018-12-14T10:06:54.770Z,9.20
2018-12-14T10:09:22.293Z,8.58
2018-12-14T10:11:55.126Z,8.48
2018-12-14T10:14:19.290Z,8.85
2018-12-14T10:16:46.989Z,9.13
2018-12-14T10:19:14.478Z,8.50
2018-12-14T10:21:42.028Z,8.93
2018-12-14T10:24:09.594Z,8.65
2018-12-14T10:26:37.184Z,10.08
2018-12-14T10:29:04.676Z,9.65
2018-12-14T10:31:32.326Z,8.23
2018-12-14T10:33:59.840Z,7.67
2018-12-14T10:36:27.371Z,8.23
2018-12-14T10:38:55.002Z,7.90
2018-12-14T10:41:22.476Z,9.20
2018-12-14T10:43:50.022Z,9.43
2018-12-14T10:46:17.782Z,9.05
2018-12-14T10:48:45.321Z,8.43
2018-12-14T10:51:12.815Z,9.73
2018-12-14T10:53:40.360Z,9.40
2018-12-14T10:56:07.923Z,9.20
2018-12-14T10:58:35.430Z,9.50
2018-12-14T11:01:08.483Z,9.20
2018-12-14T11:03:36.048Z,8.03
2018-12-14T11:06:03.697Z,8.95
2018-12-14T11:08:31.245Z,8.45
2018-12-14T11:10:58.758Z,10.03
2018-12-14T11:13:26.279Z,8.35
2018-12-14T11:15:53.759Z,9.23
2018-12-14T11:18:21.323Z,8.10
2018-12-14T11:20:48.884Z,9.43
2018-12-14T11:23:16.416Z,9.08
2018-12-14T11:25:43.966Z,8.65
2018-12-14T11:28:12.452Z,8.05
2018-12-14T11:30:40.020Z,8.98
2018-12-14T11:33:07.566Z,7.95
2018-12-14T11:35:35.051Z,8.45
2018-12-14T11:38:02.530Z,8.45
2018-12-14T11:40:30.084Z,8.70
2018-12-14T11:42:57.637Z,8.95
2018-12-14T11:45:25.105Z,9.30
2018-12-14T11:47:52.610Z,8.60
2018-12-14T11:50:20.182Z,9.25
2018-12-14T11:52:47.662Z,9.10
2018-12-14T11:55:15.203Z,8.60
2018-12-14T11:57:42.681Z,9.73
2018-12-14T12:00:10.354Z,8.35
2018-12-14T12:02:43.123Z,9.95
2018-12-14T12:05:07.372Z,8.23
2018-12-14T12:07:34.922Z,9.45
2018-12-14T12:10:02.522Z,8.98
2018-12-14T12:12:30.053Z,9.13
2018-12-14T12:14:57.599Z,8.85
2018-12-14T12:17:25.059Z,9.55
2018-12-14T12:19:52.603Z,9.30
2018-12-14T12:22:20.136Z,8.65
2018-12-14T12:24:47.626Z,9.25
2018-12-14T12:27:15.223Z,9.18
2018-12-14T12:29:42.748Z,9.30
2018-12-14T12:32:10.279Z,10.45
2018-12-14T12:34:37.811Z,9.93
2018-12-14T12:37:05.323Z,9.15
2018-12-14T12:39:32.801Z,8.80
2018-12-14T12:42:00.340Z,10.63
2018-12-14T12:44:33.312Z,8.90
2018-12-14T12:46:57.478Z,8.95
2018-12-14T12:49:24.992Z,8.95
2018-12-14T12:51:52.547Z,8.90
2018-12-14T12:54:20.207Z,10.05
2018-12-14T12:56:47.724Z,8.50
2018-12-14T12:59:15.257Z,9.40
2018-12-14T13:01:42.767Z,9.63
2018-12-14T13:04:10.318Z,9.48
2018-12-14T13:06:37.888Z,9.33
2018-12-14T13:09:05.777Z,9.33
2018-12-14T13:11:33.283Z,10.18
2018-12-14T13:14:00.870Z,8.93
2018-12-14T13:16:28.383Z,8.45
2018-12-14T13:18:55.854Z,9.68
2018-12-14T13:21:23.455Z,9.90
2018-12-14T13:23:51.071Z,8.60
2018-12-14T13:26:18.569Z,9.00
2018-12-14T13:28:46.109Z,8.40
2018-12-14T13:31:13.597Z,9.65
2018-12-14T13:33:41.283Z,9.08
2018-12-14T13:36:08.851Z,9.18
2018-12-14T13:38:36.451Z,9.78
2018-12-14T13:41:04.053Z,8.95
2018-12-14T13:43:31.614Z,8.95
2018-12-14T13:45:59.264Z,9.18
2018-12-14T13:48:26.868Z,8.78
2018-12-14T13:50:54.419Z,8.95
2018-12-14T13:53:21.898Z,7.95
2018-12-14T13:55:49.514Z,9.65
2018-12-14T13:58:17.021Z,7.92
2018-12-14T14:00:44.527Z,8.95
2018-12-14T14:03:12.059Z,9.58
2018-12-14T14:05:39.547Z,7.80
2018-12-14T14:08:07.138Z,8.98
2018-12-14T14:10:34.611Z,9.30
2018-12-14T14:13:02.121Z,8.88
2018-12-14T14:15:29.660Z,8.30
2018-12-14T14:17:57.137Z,9.15
2018-12-14T14:20:24.703Z,9.10
2018-12-14T14:22:52.237Z,8.55
2018-12-14T14:25:19.724Z,8.98
2018-12-14T14:27:47.359Z,9.63
2018-12-14T14:30:14.872Z,11.00
2018-12-14T14:32:42.347Z,9.38
2018-12-14T14:35:10.959Z,10.38
2018-12-14T14:37:38.486Z,10.23
2018-12-14T14:40:06.312Z,10.48
2018-12-14T14:42:33.815Z,8.65
2018-12-14T14:45:01.320Z,10.88
2018-12-14T14:47:28.880Z,10.80
2018-12-14T14:49:56.460Z,11.30
2018-12-14T14:52:25.579Z,10.75
2018-12-14T14:54:53.266Z,9.75
2018-12-14T14:57:20.788Z,10.32
2018-12-14T14:59:48.292Z,11.03
2018-12-14T15:02:15.824Z,9.75
2018-12-14T15:04:43.341Z,9.15
2018-12-14T15:07:10.824Z,9.95
2018-12-14T15:09:39.087Z,10.25
2018-12-14T15:12:07.997Z,11.45
2018-12-14T15:14:35.498Z,10.58
2018-12-14T15:17:03.188Z,10.28
2018-12-14T15:19:30.780Z,10.05
2018-12-14T15:22:04.398Z,10.68
2018-12-14T15:24:28.076Z,9.00
2018-12-14T15:26:55.560Z,9.15
2018-12-14T15:29:23.076Z,10.35
2018-12-14T15:31:50.903Z,9.43
2018-12-14T15:34:18.430Z,9.58
2018-12-14T15:36:45.901Z,10.28
2018-12-14T15:39:14.063Z,9.93
2018-12-14T15:41:41.707Z,9.50
2018-12-14T15:44:09.193Z,10.30
2018-12-14T15:46:37.354Z,9.75
2018-12-14T15:49:05.789Z,10.18
2018-12-14T15:51:33.321Z,10.45
2018-12-14T15:54:00.855Z,9.68
2018-12-14T15:56:28.394Z,10.10
2018-12-14T15:58:55.942Z,10.08
2018-12-14T16:01:23.466Z,10.15
2018-12-14T16:03:51.019Z,10.50
2018-12-14T16:06:18.528Z,9.65
2018-12-14T16:08:46.035Z,9.68
2018-12-14T16:11:13.658Z,10.18
2018-12-14T16:13:41.279Z,10.05
2018-12-14T16:16:08.928Z,9.83
2018-12-14T16:18:36.538Z,9.00
2018-12-14T16:21:04.165Z,9.50
2018-12-14T16:23:31.705Z,11.97
2018-12-14T16:26:00.179Z,10.00
2018-12-14T16:28:27.702Z,9.33
2018-12-14T16:30:55.849Z,9.70
2018-12-14T16:33:23.396Z,8.65
2018-12-14T16:35:50.942Z,10.25
2018-12-14T16:38:18.453Z,8.63
2018-12-14T16:40:46.002Z,8.15
2018-12-14T16:43:13.549Z,8.95
2018-12-14T16:45:41.531Z,9.45
2018-12-14T16:48:09.273Z,8.78
2018-12-14T16:50:36.874Z,8.53
2018-12-14T16:53:04.439Z,8.40
2018-12-14T16:55:32.134Z,8.45
2018-12-14T16:58:00.739Z,9.10
2018-12-14T17:00:28.327Z,9.33
2018-12-14T17:02:55.972Z,9.58
2018-12-14T17:05:23.556Z,9.05
2018-12-14T17:07:51.126Z,8.55
2018-12-14T17:10:18.726Z,9.18
2018-12-14T17:12:46.274Z,8.83
2018-12-14T17:15:13.775Z,9.15
2018-12-14T17:17:41.246Z,8.25
2018-12-14T17:20:08.875Z,9.88
2018-12-14T17:22:36.443Z,9.55
2018-12-14T17:25:06.270Z,10.03
2018-12-14T17:27:34.833Z,9.75
2018-12-14T17:30:02.637Z,9.08
2018-12-14T17:32:30.282Z,8.75
2018-12-14T17:34:57.791Z,8.20
2018-12-14T17:37:25.294Z,9.50
2018-12-14T17:39:53.841Z,8.70
2018-12-14T17:42:21.491Z,8.83
2018-12-14T17:44:49.031Z,8.75
2018-12-14T17:47:16.544Z,10.20
2018-12-14T17:49:44.063Z,9.48
2018-12-14T17:52:11.587Z,8.55
2018-12-14T17:54:39.083Z,8.18
2018-12-14T17:57:06.640Z,9.05
2018-12-14T17:59:34.123Z,8.13
2018-12-14T18:02:01.662Z,7.85
2018-12-14T18:04:29.325Z,8.83
2018-12-14T18:06:56.843Z,9.93
2018-12-14T18:09:24.378Z,9.75
2018-12-14T18:11:51.877Z,9.05
2018-12-14T18:14:19.449Z,8.63
2018-12-14T18:16:47.178Z,8.95
2018-12-14T18:19:14.838Z,9.70
2018-12-14T18:21:42.366Z,8.30
2018-12-14T18:24:09.853Z,9.78
2018-12-14T18:26:37.415Z,8.98
2018-12-14T18:29:05.161Z,9.78
2018-12-14T18:31:32.666Z,9.23
2018-12-14T18:34:00.304Z,9.60
2018-12-14T18:36:27.876Z,9.40
2018-12-14T18:38:55.576Z,9.15
2018-12-14T18:41:23.063Z,10.08
2018-12-14T18:43:50.583Z,8.53
2018-12-14T18:46:18.154Z,8.80
2018-12-14T18:48:45.681Z,9.48
2018-12-14T18:51:13.175Z,9.90
2018-12-14T18:53:42.699Z,8.88
2018-12-14T18:56:10.228Z,10.82
2018-12-14T18:58:37.755Z,10.35
2018-12-14T19:01:05.288Z,9.43
2018-12-14T19:03:34.230Z,9.75
2018-12-14T19:06:01.851Z,10.82
2018-12-14T19:08:29.461Z,9.05
2018-12-14T19:10:57.879Z,10.45
2018-12-14T19:13:25.359Z,10.48
2018-12-14T19:15:59.451Z,9.85
2018-12-14T19:18:22.510Z,10.13
2018-12-14T19:20:49.989Z,9.60
2018-12-14T19:23:19.747Z,12.50
2018-12-14T19:25:47.071Z,11.73
2018-12-14T19:28:15.584Z,10.00
2018-12-14T19:30:43.136Z,10.00
2018-12-14T19:33:11.243Z,10.15
2018-12-14T19:35:38.871Z,10.10
2018-12-14T19:38:06.426Z,10.65
2018-12-14T19:40:33.910Z,9.28
2018-12-14T19:43:01.412Z,9.75
2018-12-14T19:45:28.963Z,9.58
2018-12-14T19:47:56.489Z,10.85
2018-12-14T19:50:24.214Z,10.88
2018-12-14T19:52:51.813Z,10.35
2018-12-14T19:55:19.403Z,9.68
2018-12-14T19:57:46.963Z,11.08
2018-12-14T20:00:14.490Z,10.05
2018-12-14T20:02:42.040Z,11.40
2018-12-14T20:05:09.885Z,11.73
2018-12-14T20:07:37.442Z,11.20
2018-12-14T20:10:06.433Z,11.05
2018-12-14T20:12:33.908Z,9.08
2018-12-14T20:15:01.420Z,9.93
2018-12-14T20:17:29.049Z,10.03
2018-12-14T20:19:56.625Z,10.58
2018-12-14T20:22:24.100Z,10.48
2018-12-14T20:24:51.637Z,8.53
2018-12-14T20:27:19.180Z,11.70
2018-12-14T20:29:46.715Z,10.38
2018-12-14T20:32:14.200Z,10.00
2018-12-14T20:34:41.725Z,9.48
2018-12-14T20:37:09.338Z,11.38
2018-12-14T20:39:36.801Z,15.15
2018-12-14T20:42:04.344Z,13.00
2018-12-14T20:44:31.884Z,10.65
2018-12-14T20:46:59.424Z,10.80
2018-12-14T20:49:28.051Z,10.45
2018-12-14T20:51:55.569Z,10.55
2018-12-14T20:54:23.038Z,9.48
2018-12-14T20:56:51.758Z,10.70
2018-12-14T20:59:19.594Z,9.85
2018-12-14T21:01:47.199Z,11.18
2018-12-14T21:04:14.787Z,10.68
2018-12-14T21:06:42.348Z,11.00
2018-12-14T21:09:09.851Z,12.82
2018-12-14T21:11:37.343Z,11.68
2018-12-14T21:14:04.941Z,10.03
2018-12-14T21:16:32.492Z,10.63
2018-12-14T21:19:01.116Z,9.65
2018-12-14T21:21:28.711Z,11.00
2018-12-14T21:23:56.186Z,11.60
2018-12-14T21:26:23.710Z,12.73
2018-12-14T21:28:51.208Z,10.10
2018-12-14T21:31:19.442Z,12.88
2018-12-14T21:33:46.934Z,10.45
2018-12-14T21:36:14.581Z,11.63
2018-12-14T21:38:42.119Z,12.40
2018-12-14T21:41:09.616Z,12.33
2018-12-14T21:43:38.065Z,10.15
2018-12-14T21:46:05.571Z,12.35
2018-12-14T21:48:33.083Z,11.03
2018-12-14T21:51:00.635Z,10.28
2018-12-14T21:53:28.180Z,12.23
2018-12-14T21:55:55.721Z,10.65
2018-12-14T21:58:23.261Z,13.20
2018-12-14T22:00:50.824Z,10.15
2018-12-14T22:03:18.440Z,11.18
2018-12-14T22:05:46.018Z,11.90
2018-12-14T22:08:13.528Z,13.88
2018-12-14T22:10:41.016Z,12.00
2018-12-14T22:13:08.515Z,9.08
2018-12-14T22:15:36.122Z,10.23
2018-12-14T22:18:03.639Z,10.28
2018-12-14T22:20:31.176Z,9.60
2018-12-14T22:22:58.708Z,9.75
2018-12-14T22:25:26.220Z,10.85
2018-12-14T22:27:53.735Z,9.00
2018-12-14T22:30:21.274Z,9.90
2018-12-14T22:32:48.769Z,13.15
2018-12-14T22:35:16.322Z,13.93
2018-12-14T22:37:43.821Z,13.18
2018-12-14T22:40:11.305Z,9.48
2018-12-14T22:42:38.940Z,12.53
2018-12-14T22:45:06.695Z,13.62
2018-12-14T22:47:34.357Z,11.25
2018-12-14T22:50:01.969Z,10.53
2018-12-14T22:52:29.474Z,11.90
2018-12-14T22:54:57.007Z,11.55
2018-12-14T22:57:24.515Z,10.90
2018-12-14T22:59:54.141Z,10.50
2018-12-14T23:02:21.651Z,9.68
2018-12-14T23:04:49.579Z,9.80
2018-12-14T23:07:17.127Z,9.88
2018-12-14T23:09:44.690Z,10.58
2018-12-14T23:12:13.457Z,11.90
2018-12-14T23:14:41.027Z,9.63
2018-12-14T23:17:08.571Z,9.28
2018-12-14T23:19:36.101Z,10.15
2018-12-14T23:22:03.637Z,10.28
2018-12-14T23:24:31.172Z,9.10
2018-12-14T23:26:58.829Z,10.43
2018-12-14T23:29:26.325Z,9.88
2018-12-14T23:31:53.922Z,10.03
2018-12-14T23:34:21.511Z,9.85
2018-12-14T23:36:49.107Z,11.12
2018-12-14T23:39:16.602Z,10.43
2018-12-14T23:41:44.117Z,10.90
2018-12-14T23:44:11.647Z,11.45
2018-12-14T23:46:39.152Z,10.95
2018-12-14T23:49:06.676Z,11.63
2018-12-14T23:51:34.276Z,10.10
2018-12-14T23:54:01.809Z,10.88
2018-12-14T23:56:29.327Z,10.95
2018-12-14T23:58:56.829Z,16.82
